Time;durP1;ratioP1;P1;durP2;ratioP2;P2;SDS_P1;SDS_P2;PMS_P1;PMS_P2;Temp;Humidity;BMP_temperature;BMP_pressure;BME280_temperature;BME280_humidity;BME280_pressure;Samples;Min_cycle;Max_cycle;Signal;HPM_P1;HPM_P2
2022/08/04 00:01:32;;;;;;;;;;;26.30;45.90;;;;;;5025090;28;19913;-96
2022/08/04 00:04:03;;;;;;;;;;;26.40;46.10;;;;;;5004950;28;19914;-96
2022/08/04 00:06:31;;;;;;;;;;;26.50;46.10;;;;;;5003696;28;19921;-95
2022/08/04 00:09:01;;;;;;;;;;;26.50;46.00;;;;;;5021856;28;19909;-96
2022/08/04 00:11:28;;;;;;;;;;;26.60;45.90;;;;;;5020362;28;19921;-94
2022/08/04 00:14:11;;;;;;;;;;;26.50;45.90;;;;;;5002623;28;19940;-94
2022/08/04 00:16:39;;;;;;;;;;;26.60;45.90;;;;;;5019339;28;20255;-95
2022/08/04 00:19:09;;;;;;;;;;;26.60;45.90;;;;;;5003523;28;20422;-94
2022/08/04 00:21:37;;;;;;;;;;;26.60;46.00;;;;;;5002543;28;20274;-95
2022/08/04 00:24:03;;;;;;;;;;;26.70;46.10;;;;;;5005523;28;19964;-95
2022/08/04 00:26:28;;;;;;;;;;;26.60;46.00;;;;;;5005928;28;19929;-96
2022/08/04 00:28:54;;;;;;;;;;;26.60;46.20;;;;;;5002255;28;19910;-96
2022/08/04 00:31:21;;;;;;;;;;;26.50;46.40;;;;;;5002506;28;19921;-96
2022/08/04 00:33:47;;;;;;;;;;;26.40;46.50;;;;;;5000853;28;19992;-94
2022/08/04 00:36:16;;;;;;;;;;;26.40;46.50;;;;;;5001280;28;20377;-95
2022/08/04 00:38:41;;;;;;;;;;;26.40;46.50;;;;;;5002899;28;19933;-96
2022/08/04 00:41:13;;;;;;;;;;;26.30;46.50;;;;;;5021179;28;20360;-95
2022/08/04 00:43:57;;;;;;;;;;;26.30;46.60;;;;;;5018163;28;19910;-96
2022/08/04 00:46:27;;;;;;;;;;;26.30;46.70;;;;;;5001373;28;19922;-95
2022/08/04 00:48:59;;;;;;;;;;;26.20;46.70;;;;;;5017591;28;20346;-96
2022/08/04 00:51:29;;;;;;;;;;;26.20;46.70;;;;;;4997010;28;20012;-96
2022/08/04 00:54:07;;;;;;;;;;;26.20;46.60;;;;;;4996487;28;19914;-96
2022/08/04 00:56:56;;;;;;;;;;;26.20;46.80;;;;;;5000884;28;19917;-96
2022/08/04 00:59:33;;;;;;;;;;;26.20;46.70;;;;;;4982520;28;19910;-95
2022/08/04 01:02:00;;;;;;;;;;;26.20;46.70;;;;;;4984031;28;20355;-94
2022/08/04 01:04:26;;;;;;;;;;;26.20;46.70;;;;;;5001469;28;19932;-95
2022/08/04 01:07:03;;;;;;;;;;;26.20;46.80;;;;;;5018431;28;19918;-95
2022/08/04 01:09:47;;;;;;;;;;;26.20;46.80;;;;;;5003055;28;20249;-95
2022/08/04 01:12:22;;;;;;;;;;;26.20;46.90;;;;;;5003047;28;19918;-94
2022/08/04 01:14:50;;;;;;;;;;;26.30;46.90;;;;;;5021864;28;19921;-94
2022/08/04 01:17:22;;;;;;;;;;;26.20;46.90;;;;;;5021593;28;19913;-96
2022/08/04 01:20:12;;;;;;;;;;;26.20;46.90;;;;;;5003741;28;19909;-96
2022/08/04 01:26:30;;;;;;;;;;;26.00;47.10;;;;;;5004855;28;19943;-96
2022/08/04 01:29:28;;;;;;;;;;;26.00;47.20;;;;;;5006262;28;20281;-95
2022/08/04 01:31:59;;;;;;;;;;;26.00;47.20;;;;;;5012043;28;19972;-95
2022/08/04 01:34:27;;;;;;;;;;;25.90;47.30;;;;;;5005522;28;20277;-95
2022/08/04 01:36:57;;;;;;;;;;;25.90;47.30;;;;;;5004889;28;19918;-96
2022/08/04 01:39:39;;;;;;;;;;;25.90;47.30;;;;;;5020054;28;19932;-96
2022/08/04 01:42:05;;;;;;;;;;;25.90;47.30;;;;;;5005047;28;19924;-96
2022/08/04 01:44:31;;;;;;;;;;;26.00;47.40;;;;;;5024691;28;19909;-96
2022/08/04 01:46:59;;;;;;;;;;;26.00;47.30;;;;;;5041030;28;19927;-96
2022/08/04 01:49:29;;;;;;;;;;;26.00;47.30;;;;;;5001027;28;19941;-95
2022/08/04 01:52:06;;;;;;;;;;;26.00;47.20;;;;;;4983790;28;20290;-95
2022/08/04 01:54:32;;;;;;;;;;;26.00;47.40;;;;;;4976501;28;19924;-94
2022/08/04 01:56:59;;;;;;;;;;;25.90;47.50;;;;;;5001370;28;19968;-96
2022/08/04 01:59:28;;;;;;;;;;;25.80;47.50;;;;;;5039929;28;20290;-95
2022/08/04 02:05:08;;;;;;;;;;;25.70;47.60;;;;;;5000716;28;19914;-95
2022/08/04 02:07:47;;;;;;;;;;;25.70;47.70;;;;;;4984721;28;19918;-95
2022/08/04 02:10:40;;;;;;;;;;;25.70;47.80;;;;;;4984754;28;19910;-94
2022/08/04 02:22:32;;;;;;;;;;;25.50;48.30;;;;;;5010257;28;20320;-95
2022/08/04 02:25:03;;;;;;;;;;;25.50;48.30;;;;;;5003749;28;19925;-96
2022/08/04 02:27:41;;;;;;;;;;;25.60;48.30;;;;;;5003366;28;19917;-95
2022/08/04 02:30:07;;;;;;;;;;;25.60;48.30;;;;;;5003814;28;19909;-95
2022/08/04 02:32:38;;;;;;;;;;;25.50;48.60;;;;;;5020881;28;19918;-95
2022/08/04 02:35:10;;;;;;;;;;;25.40;48.70;;;;;;5004021;28;19910;-95
2022/08/04 02:37:36;;;;;;;;;;;25.40;49.10;;;;;;5019036;28;19917;-95
2022/08/04 02:40:03;;;;;;;;;;;25.30;49.10;;;;;;5003278;28;19979;-94
2022/08/04 02:42:29;;;;;;;;;;;25.20;49.30;;;;;;5004048;28;20277;-94
2022/08/04 02:44:56;;;;;;;;;;;25.20;49.40;;;;;;5021091;28;19916;-95
2022/08/04 02:47:23;;;;;;;;;;;25.10;49.40;;;;;;5004359;28;19921;-95
2022/08/04 02:49:49;;;;;;;;;;;25.00;49.50;;;;;;5021541;28;20381;-94
2022/08/04 02:52:15;;;;;;;;;;;24.90;49.50;;;;;;5019288;28;19921;-95
2022/08/04 02:54:44;;;;;;;;;;;24.90;49.60;;;;;;5012854;28;19909;-94
2022/08/04 02:57:13;;;;;;;;;;;24.80;49.50;;;;;;5018307;28;20285;-95
2022/08/04 02:59:59;;;;;;;;;;;24.80;49.70;;;;;;4983524;28;19910;-95
2022/08/04 03:02:33;;;;;;;;;;;24.80;49.80;;;;;;4986964;28;19918;-95
2022/08/04 03:05:15;;;;;;;;;;;24.80;49.90;;;;;;5003905;28;20384;-95
2022/08/04 03:08:00;;;;;;;;;;;24.90;49.90;;;;;;5000803;28;19968;-94
2022/08/04 03:10:44;;;;;;;;;;;24.90;49.90;;;;;;5001361;28;20720;-96
2022/08/04 03:13:28;;;;;;;;;;;24.90;49.90;;;;;;5000950;28;20008;-95
2022/08/04 03:15:56;;;;;;;;;;;25.00;50.00;;;;;;5001494;28;20020;-96
2022/08/04 03:18:41;;;;;;;;;;;25.10;50.00;;;;;;5012320;28;19910;-95
2022/08/04 03:21:25;;;;;;;;;;;25.20;49.80;;;;;;5023643;28;19971;-95
2022/08/04 03:24:09;;;;;;;;;;;25.10;49.90;;;;;;5022486;28;20419;-96
2022/08/04 03:26:56;;;;;;;;;;;25.00;50.00;;;;;;5019866;28;20051;-96
2022/08/04 03:29:42;;;;;;;;;;;25.00;50.10;;;;;;5021226;28;19917;-96
2022/08/04 03:32:07;;;;;;;;;;;25.00;50.00;;;;;;5022878;28;19917;-96
2022/08/04 03:35:01;;;;;;;;;;;25.00;50.00;;;;;;5020534;28;20379;-95
2022/08/04 03:37:47;;;;;;;;;;;24.90;50.30;;;;;;5000835;28;19928;-96
2022/08/04 03:40:24;;;;;;;;;;;24.80;50.30;;;;;;4982971;28;19909;-96
2022/08/04 03:42:50;;;;;;;;;;;24.70;50.40;;;;;;5006362;28;19968;-95
2022/08/04 03:45:34;;;;;;;;;;;24.60;50.50;;;;;;5019846;28;19993;-96
2022/08/04 03:48:06;;;;;;;;;;;24.60;50.60;;;;;;5019347;28;19984;-96
2022/08/04 03:50:34;;;;;;;;;;;24.50;50.80;;;;;;5015881;28;19918;-96
2022/08/04 03:53:18;;;;;;;;;;;24.40;50.80;;;;;;5016877;28;19917;-96
2022/08/04 03:55:44;;;;;;;;;;;24.40;50.90;;;;;;5028636;28;19917;-95
2022/08/04 03:58:18;;;;;;;;;;;24.40;50.90;;;;;;5019497;28;19910;-95
2022/08/04 04:01:05;;;;;;;;;;;24.50;50.90;;;;;;5021823;28;19925;-95
2022/08/04 04:03:42;;;;;;;;;;;24.50;50.90;;;;;;5018857;28;19910;-96
2022/08/04 04:06:08;;;;;;;;;;;24.50;51.00;;;;;;5003811;28;20307;-95
2022/08/04 04:08:33;;;;;;;;;;;24.40;51.10;;;;;;5021416;28;19916;-96
2022/08/04 04:11:18;;;;;;;;;;;24.60;51.20;;;;;;5002889;28;20012;-95
2022/08/04 04:13:55;;;;;;;;;;;24.70;51.10;;;;;;5020498;28;19913;-95
2022/08/04 04:16:27;;;;;;;;;;;24.70;51.20;;;;;;5017516;28;19964;-95
2022/08/04 04:19:04;;;;;;;;;;;24.80;51.20;;;;;;5020014;28;19913;-96
2022/08/04 04:21:41;;;;;;;;;;;24.80;51.20;;;;;;5017951;28;19917;-95
2022/08/04 04:24:24;;;;;;;;;;;24.80;51.20;;;;;;5019329;28;19924;-95
2022/08/04 04:26:50;;;;;;;;;;;24.90;51.30;;;;;;5019770;28;19921;-95
2022/08/04 04:29:27;;;;;;;;;;;25.10;51.40;;;;;;5001044;28;19916;-95
2022/08/04 04:31:56;;;;;;;;;;;25.20;51.30;;;;;;5001943;28;19917;-96
2022/08/04 04:34:39;;;;;;;;;;;25.30;51.20;;;;;;5001319;28;19913;-95
2022/08/04 04:37:08;;;;;;;;;;;25.40;51.30;;;;;;5019144;28;19918;-96
2022/08/04 04:39:50;;;;;;;;;;;25.60;51.80;;;;;;5002172;28;19910;-96
2022/08/04 04:42:16;;;;;;;;;;;25.90;52.20;;;;;;5018915;28;19921;-96
2022/08/04 04:44:51;;;;;;;;;;;26.20;52.20;;;;;;5017634;28;19917;-95
2022/08/04 04:47:22;;;;;;;;;;;26.60;52.20;;;;;;5020159;28;19921;-96
2022/08/04 04:49:48;;;;;;;;;;;26.80;51.70;;;;;;5021072;28;20412;-95
2022/08/04 04:52:20;;;;;;;;;;;27.00;51.30;;;;;;5020911;28;19901;-94
2022/08/04 04:55:01;;;;;;;;;;;27.20;50.80;;;;;;4987807;28;19914;-96
2022/08/04 04:57:29;;;;;;;;;;;27.30;50.30;;;;;;4984314;28;19927;-95
2022/08/04 05:00:04;;;;;;;;;;;27.40;50.00;;;;;;4983248;28;19953;-95
2022/08/04 05:02:38;;;;;;;;;;;27.50;49.80;;;;;;4999792;28;19977;-95
2022/08/04 05:05:16;;;;;;;;;;;27.60;50.10;;;;;;5000717;28;19917;-95
2022/08/04 05:07:42;;;;;;;;;;;27.80;50.30;;;;;;4988656;28;19918;-96
2022/08/04 05:10:26;;;;;;;;;;;28.10;50.40;;;;;;5020842;28;19985;-93
2022/08/04 05:13:13;;;;;;;;;;;28.40;50.00;;;;;;5019456;28;20393;-93
2022/08/04 05:15:41;;;;;;;;;;;28.70;49.50;;;;;;5004627;28;19913;-94
2022/08/04 05:18:08;;;;;;;;;;;28.90;49.20;;;;;;5004289;28;19913;-94
2022/08/04 05:20:36;;;;;;;;;;;29.10;48.60;;;;;;5021252;28;20396;-94
2022/08/04 05:23:07;;;;;;;;;;;29.30;48.10;;;;;;5021863;28;20392;-94
2022/08/04 05:25:51;;;;;;;;;;;29.40;47.70;;;;;;5020650;28;19917;-94
2022/08/04 05:28:23;;;;;;;;;;;29.50;47.20;;;;;;5020321;28;20012;-93
2022/08/04 05:30:52;;;;;;;;;;;29.70;46.90;;;;;;5022727;28;19964;-93
2022/08/04 05:33:21;;;;;;;;;;;29.70;46.60;;;;;;5005345;28;19928;-96
2022/08/04 05:35:48;;;;;;;;;;;29.80;46.30;;;;;;5004967;28;19917;-94
2022/08/04 05:38:19;;;;;;;;;;;29.80;46.40;;;;;;5005550;28;19916;-94
2022/08/04 05:40:45;;;;;;;;;;;30.00;46.00;;;;;;5020889;28;19917;-94
2022/08/04 05:43:12;;;;;;;;;;;30.10;45.70;;;;;;5010644;28;19945;-94
2022/08/04 05:45:39;;;;;;;;;;;30.20;45.70;;;;;;4984202;28;19918;-94
2022/08/04 05:48:06;;;;;;;;;;;30.40;45.50;;;;;;4984617;28;19925;-95
2022/08/04 05:50:32;;;;;;;;;;;30.50;45.00;;;;;;4999096;28;19917;-95
2022/08/04 05:52:58;;;;;;;;;;;30.60;44.70;;;;;;4999642;28;19915;-95
2022/08/04 05:55:24;;;;;;;;;;;30.70;44.80;;;;;;5004158;28;19910;-94
2022/08/04 05:57:50;;;;;;;;;;;31.00;45.10;;;;;;4984485;28;19910;-95
2022/08/04 06:00:16;;;;;;;;;;;31.30;44.50;;;;;;5020349;28;19917;-96
2022/08/04 06:02:43;;;;;;;;;;;31.40;43.70;;;;;;5025130;28;19910;-94
2022/08/04 06:05:09;;;;;;;;;;;31.40;43.20;;;;;;5007535;28;19914;-93
2022/08/04 06:07:35;;;;;;;;;;;31.40;43.00;;;;;;5023946;28;19909;-94
2022/08/04 06:10:00;;;;;;;;;;;31.60;43.10;;;;;;5004749;28;19914;-95
2022/08/04 06:12:35;;;;;;;;;;;31.80;43.00;;;;;;5008375;28;20354;-95
2022/08/04 06:15:01;;;;;;;;;;;31.90;42.60;;;;;;5025222;28;19918;-95
2022/08/04 06:17:29;;;;;;;;;;;32.20;42.60;;;;;;5024542;28;19913;-93
2022/08/04 06:19:56;;;;;;;;;;;32.60;42.60;;;;;;5023269;28;19937;-93
2022/08/04 06:22:23;;;;;;;;;;;33.00;42.10;;;;;;5023038;28;20030;-94
2022/08/04 06:24:51;;;;;;;;;;;33.40;41.40;;;;;;5002226;28;20013;-93
2022/08/04 06:27:17;;;;;;;;;;;33.70;40.80;;;;;;5021512;28;20293;-93
2022/08/04 06:29:43;;;;;;;;;;;34.10;40.60;;;;;;5012327;28;19914;-93
2022/08/04 06:32:13;;;;;;;;;;;34.40;40.20;;;;;;5022620;28;19956;-93
2022/08/04 06:34:39;;;;;;;;;;;34.80;39.90;;;;;;5006536;28;19917;-94
2022/08/04 06:37:10;;;;;;;;;;;35.30;39.70;;;;;;5022656;28;19918;-95
2022/08/04 06:39:36;;;;;;;;;;;35.80;39.00;;;;;;5002670;28;19914;-95
2022/08/04 06:42:02;;;;;;;;;;;36.10;37.90;;;;;;4985708;28;19914;-94
2022/08/04 06:44:29;;;;;;;;;;;36.20;36.80;;;;;;5003424;28;19925;-95
2022/08/04 06:46:55;;;;;;;;;;;36.10;36.30;;;;;;5001094;28;19918;-95
2022/08/04 06:49:22;;;;;;;;;;;36.00;36.00;;;;;;5005858;28;19916;-95
2022/08/04 06:51:48;;;;;;;;;;;35.90;36.00;;;;;;4987394;28;19908;-93
2022/08/04 06:54:14;;;;;;;;;;;35.80;36.20;;;;;;5030894;28;20246;-93
2022/08/04 06:56:42;;;;;;;;;;;35.80;36.50;;;;;;4991448;28;20034;-92
2022/08/04 06:59:08;;;;;;;;;;;36.00;36.80;;;;;;4987848;28;19916;-94
2022/08/04 07:01:35;;;;;;;;;;;36.40;36.80;;;;;;5005130;28;19902;-92
2022/08/04 07:04:01;;;;;;;;;;;36.80;36.60;;;;;;5005487;28;19924;-95
2022/08/04 07:06:26;;;;;;;;;;;37.30;36.00;;;;;;5006595;28;20362;-94
2022/08/04 07:08:53;;;;;;;;;;;37.90;35.60;;;;;;5010504;28;19920;-94
2022/08/04 07:11:19;;;;;;;;;;;38.50;35.40;;;;;;5023428;28;19921;-94
2022/08/04 07:13:45;;;;;;;;;;;39.20;34.30;;;;;;4997632;28;19976;-94
2022/08/04 07:16:15;;;;;;;;;;;39.80;33.50;;;;;;5023390;28;19918;-95
2022/08/04 07:18:41;;;;;;;;;;;40.40;32.70;;;;;;5024888;28;19910;-94
2022/08/04 07:21:07;;;;;;;;;;;41.00;31.80;;;;;;5024045;28;19921;-94
2022/08/04 07:23:35;;;;;;;;;;;41.60;31.20;;;;;;5001241;28;19921;-94
2022/08/04 07:26:00;;;;;;;;;;;42.20;30.30;;;;;;4999716;28;19937;-94
2022/08/04 07:28:27;;;;;;;;;;;42.80;29.40;;;;;;5009860;28;19976;-94
2022/08/04 07:30:54;;;;;;;;;;;43.20;28.10;;;;;;4986859;28;19925;-95
2022/08/04 07:33:19;;;;;;;;;;;43.60;28.00;;;;;;4983983;28;19964;-95
2022/08/04 07:35:47;;;;;;;;;;;44.00;27.20;;;;;;5015197;28;19918;-94
2022/08/04 07:38:12;;;;;;;;;;;44.20;26.40;;;;;;5001599;28;19910;-94
2022/08/04 07:40:40;;;;;;;;;;;44.30;26.00;;;;;;4984717;28;19924;-94
2022/08/04 07:43:09;;;;;;;;;;;44.20;25.50;;;;;;4991788;28;20333;-94
2022/08/04 07:45:35;;;;;;;;;;;44.10;25.40;;;;;;5022449;28;19921;-94
2022/08/04 07:48:03;;;;;;;;;;;44.20;25.60;;;;;;5005771;28;19913;-94
2022/08/04 07:50:31;;;;;;;;;;;44.40;25.70;;;;;;5021320;28;19924;-95
2022/08/04 07:52:56;;;;;;;;;;;44.70;25.60;;;;;;5022567;28;19937;-93
2022/08/04 07:55:26;;;;;;;;;;;45.20;25.00;;;;;;4985718;28;19910;-94
2022/08/04 07:57:52;;;;;;;;;;;45.50;24.60;;;;;;4990719;28;19973;-93
2022/08/04 08:00:17;;;;;;;;;;;45.90;24.30;;;;;;4988671;28;19913;-94
2022/08/04 08:02:47;;;;;;;;;;;46.30;24.00;;;;;;4991089;28;20330;-94
2022/08/04 08:05:17;;;;;;;;;;;46.70;24.10;;;;;;5005931;28;19910;-94
2022/08/04 08:07:44;;;;;;;;;;;47.20;23.90;;;;;;5005364;28;19910;-95
2022/08/04 08:10:17;;;;;;;;;;;47.70;23.60;;;;;;4999485;28;19914;-94
2022/08/04 08:12:43;;;;;;;;;;;48.20;23.20;;;;;;5004529;28;20330;-95
2022/08/04 08:15:12;;;;;;;;;;;48.50;22.90;;;;;;5022480;28;19917;-93
2022/08/04 08:17:40;;;;;;;;;;;48.90;22.30;;;;;;5005508;28;20125;-94
2022/08/04 08:20:07;;;;;;;;;;;49.10;22.10;;;;;;5008296;28;19910;-94
2022/08/04 08:22:33;;;;;;;;;;;49.50;22.10;;;;;;5002395;28;19929;-94
2022/08/04 08:24:58;;;;;;;;;;;49.80;21.50;;;;;;5004475;28;19910;-95
2022/08/04 08:27:34;;;;;;;;;;;50.20;21.50;;;;;;5005209;28;19910;-93
2022/08/04 08:29:59;;;;;;;;;;;50.50;21.30;;;;;;5007350;28;19913;-93
2022/08/04 08:32:25;;;;;;;;;;;50.80;20.70;;;;;;5007122;28;19932;-94
2022/08/04 08:34:51;;;;;;;;;;;51.10;20.50;;;;;;5021425;28;19913;-95
2022/08/04 08:37:23;;;;;;;;;;;51.30;20.30;;;;;;5026810;28;19901;-93
2022/08/04 08:40:16;;;;;;;;;;;51.50;20.10;;;;;;5026473;28;19933;-94
2022/08/04 08:43:01;;;;;;;;;;;51.80;20.00;;;;;;5016363;28;20041;-94
2022/08/04 08:45:45;;;;;;;;;;;52.10;19.70;;;;;;5000820;28;20385;-95
2022/08/04 08:48:27;;;;;;;;;;;52.40;19.60;;;;;;5004706;28;19914;-94
2022/08/04 08:51:02;;;;;;;;;;;52.70;19.20;;;;;;5022565;28;19913;-94
2022/08/04 08:53:28;;;;;;;;;;;52.70;18.90;;;;;;5019524;28;19917;-95
2022/08/04 08:56:19;;;;;;;;;;;52.70;18.80;;;;;;5018616;28;19913;-94
2022/08/04 08:58:57;;;;;;;;;;;52.70;18.40;;;;;;4997835;28;19976;-93
2022/08/04 09:01:26;;;;;;;;;;;52.80;18.40;;;;;;5020786;28;19937;-93
2022/08/04 09:04:16;;;;;;;;;;;52.90;18.30;;;;;;5019886;28;19914;-93
2022/08/04 09:06:46;;;;;;;;;;;53.00;18.40;;;;;;5022953;28;19917;-94
2022/08/04 09:09:17;;;;;;;;;;;53.10;18.00;;;;;;5026155;28;19934;-94
2022/08/04 09:11:47;;;;;;;;;;;53.20;17.50;;;;;;5013138;28;19902;-93
2022/08/04 09:14:19;;;;;;;;;;;53.20;16.80;;;;;;4987032;28;19968;-93
2022/08/04 09:16:59;;;;;;;;;;;53.00;16.60;;;;;;5016857;28;19928;-93
2022/08/04 09:19:28;;;;;;;;;;;52.80;15.90;;;;;;5009846;28;19933;-95
2022/08/04 09:22:17;;;;;;;;;;;52.70;16.40;;;;;;5012838;28;19925;-94
2022/08/04 09:24:52;;;;;;;;;;;52.90;16.80;;;;;;5020114;28;19902;-94
2022/08/04 09:27:33;;;;;;;;;;;53.20;16.60;;;;;;5023685;28;19914;-94
2022/08/04 09:30:04;;;;;;;;;;;53.50;16.20;;;;;;4999608;28;19914;-94
2022/08/04 09:32:50;;;;;;;;;;;53.80;16.00;;;;;;5019661;28;19921;-95
2022/08/04 09:35:15;;;;;;;;;;;54.10;15.80;;;;;;5036225;28;19960;-95
2022/08/04 09:37:52;;;;;;;;;;;54.30;15.50;;;;;;5022107;28;20336;-94
2022/08/04 09:40:38;;;;;;;;;;;54.50;15.40;;;;;;5003663;28;19914;-94
2022/08/04 09:43:19;;;;;;;;;;;54.60;15.30;;;;;;4974858;28;19905;-94
2022/08/04 09:45:49;;;;;;;;;;;54.80;15.20;;;;;;4996055;28;19989;-94
2022/08/04 09:48:35;;;;;;;;;;;55.00;15.20;;;;;;5003876;28;19914;-91
2022/08/04 09:51:02;;;;;;;;;;;55.20;14.70;;;;;;4994135;28;20068;-90
2022/08/04 09:53:47;;;;;;;;;;;55.20;14.40;;;;;;4993964;28;19921;-91
2022/08/04 09:56:31;;;;;;;;;;;55.30;14.40;;;;;;4997766;28;20385;-91
2022/08/04 09:59:09;;;;;;;;;;;55.50;14.10;;;;;;4997876;28;19914;-92
2022/08/04 10:01:35;;;;;;;;;;;55.60;14.10;;;;;;5015062;28;20008;-92
2022/08/04 10:04:02;;;;;;;;;;;55.70;14.30;;;;;;5025872;28;19922;-92
2022/08/04 10:06:28;;;;;;;;;;;55.80;13.70;;;;;;5018835;28;19910;-92
2022/08/04 10:08:53;;;;;;;;;;;55.70;13.70;;;;;;5002361;28;20286;-91
2022/08/04 10:11:37;;;;;;;;;;;55.80;13.60;;;;;;5018875;28;20407;-91
2022/08/04 10:14:03;;;;;;;;;;;55.80;13.40;;;;;;5016234;28;19977;-92
2022/08/04 10:16:36;;;;;;;;;;;55.70;13.70;;;;;;5003765;28;19963;-92
2022/08/04 10:19:25;;;;;;;;;;;55.70;13.60;;;;;;5020662;28;19917;-92
2022/08/04 10:22:00;;;;;;;;;;;55.40;13.40;;;;;;4991055;28;19915;-92
2022/08/04 10:24:31;;;;;;;;;;;55.20;13.70;;;;;;4989114;28;20413;-92
2022/08/04 10:27:05;;;;;;;;;;;55.40;13.80;;;;;;4998020;28;19949;-92
2022/08/04 10:29:43;;;;;;;;;;;55.60;13.90;;;;;;4991288;28;20417;-92
2022/08/04 10:32:19;;;;;;;;;;;55.70;13.40;;;;;;4999272;28;20393;-91
2022/08/04 10:34:53;;;;;;;;;;;55.70;13.30;;;;;;5000665;28;20358;-91
2022/08/04 10:37:23;;;;;;;;;;;55.90;13.40;;;;;;5016184;28;19920;-91
2022/08/04 10:42:48;;;;;;;;;;;56.30;13.50;;;;;;5001593;28;19948;-92
2022/08/04 10:45:17;;;;;;;;;;;56.50;13.50;;;;;;4990694;28;19914;-91
2022/08/04 10:48:03;;;;;;;;;;;56.50;13.10;;;;;;4989238;28;19915;-92
2022/08/04 10:50:29;;;;;;;;;;;56.50;13.40;;;;;;4944061;28;19953;-91
2022/08/04 10:52:58;;;;;;;;;;;56.70;13.40;;;;;;5013389;28;19941;-92
2022/08/04 10:55:29;;;;;;;;;;;56.90;13.20;;;;;;5000409;28;19965;-91
2022/08/04 10:57:58;;;;;;;;;;;57.10;13.10;;;;;;5001176;28;19914;-92
2022/08/04 11:00:30;;;;;;;;;;;57.30;13.20;;;;;;5001305;28;19916;-92
2022/08/04 11:02:56;;;;;;;;;;;57.50;13.30;;;;;;4994886;28;19914;-91
2022/08/04 11:05:38;;;;;;;;;;;57.80;13.20;;;;;;4998934;28;19914;-92
2022/08/04 11:08:13;;;;;;;;;;;57.90;12.90;;;;;;4984802;28;19921;-91
2022/08/04 11:10:45;;;;;;;;;;;57.80;12.60;;;;;;4998294;28;20684;-90
2022/08/04 11:13:12;;;;;;;;;;;57.80;12.70;;;;;;5003677;28;19960;-92
2022/08/04 11:15:51;;;;;;;;;;;57.70;12.30;;;;;;4981496;28;19977;-91
2022/08/04 11:18:32;;;;;;;;;;;57.60;12.30;;;;;;5008481;28;19921;-91
2022/08/04 11:21:01;;;;;;;;;;;57.40;12.20;;;;;;4987666;28;19917;-91
2022/08/04 11:23:42;;;;;;;;;;;57.40;12.30;;;;;;5009059;28;19933;-91
2022/08/04 11:26:40;;;;;;;;;;;57.20;12.10;;;;;;5012595;28;19940;-91
2022/08/04 11:29:25;;;;;;;;;;;57.10;12.30;;;;;;4960874;28;19917;-92
2022/08/04 11:32:07;;;;;;;;;;;57.30;12.30;;;;;;5028838;28;19917;-92
2022/08/04 11:34:34;;;;;;;;;;;57.40;12.40;;;;;;5016523;28;19940;-92
2022/08/04 11:36:59;;;;;;;;;;;57.60;12.50;;;;;;5001491;28;20405;-91
2022/08/04 11:39:42;;;;;;;;;;;57.70;12.20;;;;;;4998904;28;19918;-91
2022/08/04 11:42:27;;;;;;;;;;;57.70;12.20;;;;;;4988133;28;19905;-90
2022/08/04 11:45:04;;;;;;;;;;;57.60;12.30;;;;;;5013273;28;19918;-92
2022/08/04 11:47:48;;;;;;;;;;;57.70;12.30;;;;;;5001406;28;19914;-92
2022/08/04 11:50:19;;;;;;;;;;;57.50;11.90;;;;;;5018103;28;19940;-91
2022/08/04 11:52:46;;;;;;;;;;;56.90;12.30;;;;;;5019425;28;20436;-91
2022/08/04 11:55:13;;;;;;;;;;;56.70;12.50;;;;;;4998729;28;19955;-91
2022/08/04 11:57:39;;;;;;;;;;;56.70;12.50;;;;;;5000650;28;19902;-92
2022/08/04 12:00:09;;;;;;;;;;;56.70;12.20;;;;;;5000381;28;19920;-91
2022/08/04 12:02:44;;;;;;;;;;;56.60;12.20;;;;;;4982778;28;20398;-91
2022/08/04 12:05:10;;;;;;;;;;;56.20;12.40;;;;;;4994334;28;20291;-92
2022/08/04 12:07:57;;;;;;;;;;;56.00;12.70;;;;;;5017741;28;19913;-92
2022/08/04 12:10:29;;;;;;;;;;;56.10;12.70;;;;;;5032233;28;19917;-91
2022/08/04 12:13:04;;;;;;;;;;;56.20;12.50;;;;;;4996407;28;19922;-92
2022/08/04 12:15:35;;;;;;;;;;;56.40;12.50;;;;;;4998605;28;20341;-91
2022/08/04 12:18:20;;;;;;;;;;;55.90;12.60;;;;;;4999260;28;20345;-92
2022/08/04 12:20:47;;;;;;;;;;;55.50;12.70;;;;;;5001235;28;19918;-92
2022/08/04 12:23:19;;;;;;;;;;;55.70;12.80;;;;;;5010953;28;19920;-91
2022/08/04 12:25:46;;;;;;;;;;;56.10;12.20;;;;;;4998650;28;19985;-92
2022/08/04 12:28:18;;;;;;;;;;;56.30;12.20;;;;;;4996968;28;19977;-91
2022/08/04 12:30:45;;;;;;;;;;;56.00;11.80;;;;;;4999301;28;19913;-93
2022/08/04 12:33:14;;;;;;;;;;;55.80;12.10;;;;;;5014848;28;19925;-92
2022/08/04 12:35:44;;;;;;;;;;;55.70;12.20;;;;;;4993542;28;20436;-90
2022/08/04 12:38:18;;;;;;;;;;;55.30;12.20;;;;;;4991079;28;20621;-91
2022/08/04 12:40:50;;;;;;;;;;;55.40;12.30;;;;;;4996653;28;19968;-92
2022/08/04 12:43:18;;;;;;;;;;;55.70;12.20;;;;;;4999172;28;20330;-91
2022/08/04 12:45:55;;;;;;;;;;;55.80;12.00;;;;;;5017908;28;20389;-92
2022/08/04 12:48:22;;;;;;;;;;;56.20;12.00;;;;;;4993550;28;19914;-91
2022/08/04 12:50:52;;;;;;;;;;;56.20;11.60;;;;;;5001104;28;19968;-92
2022/08/04 12:53:19;;;;;;;;;;;56.40;11.70;;;;;;4975158;28;19922;-93
2022/08/04 12:55:46;;;;;;;;;;;56.40;11.60;;;;;;4981172;28;20001;-92
2022/08/04 12:58:15;;;;;;;;;;;56.60;11.60;;;;;;4988084;28;20370;-94
2022/08/04 13:00:41;;;;;;;;;;;56.40;11.70;;;;;;5016574;28;19971;-92
2022/08/04 13:03:29;;;;;;;;;;;;;;;;;;;;;
2022/08/04 13:08:51;;;;;;;;;;;55.50;11.80;;;;;;5006310;28;19921;-92
2022/08/04 13:11:18;;;;;;;;;;;55.00;11.80;;;;;;4981905;28;19917;-91
2022/08/04 13:13:44;;;;;;;;;;;54.60;11.90;;;;;;4992864;28;19929;-91
2022/08/04 13:16:10;;;;;;;;;;;54.20;12.10;;;;;;5017589;28;20404;-90
2022/08/04 13:18:47;;;;;;;;;;;54.30;12.00;;;;;;5005559;28;20424;-91
2022/08/04 13:21:19;;;;;;;;;;;54.30;11.90;;;;;;4980290;28;19955;-91
2022/08/04 13:23:48;;;;;;;;;;;53.60;11.70;;;;;;4979065;28;20064;-91
2022/08/04 13:26:19;;;;;;;;;;;52.70;11.80;;;;;;4978758;28;20317;-90
2022/08/04 13:28:51;;;;;;;;;;;52.10;12.00;;;;;;5008541;28;20049;-91
2022/08/04 13:31:48;;;;;;;;;;;51.50;12.30;;;;;;5002099;28;19996;-92
2022/08/04 13:34:14;;;;;;;;;;;51.20;12.50;;;;;;4911986;29;20493;-91
2022/08/04 13:36:53;;;;;;;;;;;51.00;12.70;;;;;;4952163;29;20034;-92
2022/08/04 13:39:20;;;;;;;;;;;50.60;13.00;;;;;;5011849;28;19936;-91
2022/08/04 13:42:01;;;;;;;;;;;50.40;13.20;;;;;;5007649;28;19922;-92
2022/08/04 13:44:29;;;;;;;;;;;50.10;13.40;;;;;;5013786;28;20553;-91
2022/08/04 13:46:57;;;;;;;;;;;49.80;13.60;;;;;;5016689;28;19925;-90
2022/08/04 13:49:23;;;;;;;;;;;49.40;13.90;;;;;;5016361;28;20719;-91
2022/08/04 13:51:56;;;;;;;;;;;49.00;14.10;;;;;;5011696;28;19968;-91
2022/08/04 13:54:22;;;;;;;;;;;48.80;14.40;;;;;;5002851;28;19913;-91
2022/08/04 13:56:49;;;;;;;;;;;48.60;14.60;;;;;;4989808;28;20263;-92
2022/08/04 13:59:17;;;;;;;;;;;48.40;14.80;;;;;;5008645;28;19913;-91
2022/08/04 14:01:45;;;;;;;;;;;48.20;15.10;;;;;;5001016;28;20313;-90
2022/08/04 14:04:19;;;;;;;;;;;48.10;15.30;;;;;;4987245;28;19937;-91
2022/08/04 14:06:49;;;;;;;;;;;48.00;15.50;;;;;;4978432;28;19918;-91
2022/08/04 14:09:26;;;;;;;;;;;47.80;15.70;;;;;;5012629;28;19913;-91
2022/08/04 14:11:53;;;;;;;;;;;47.80;16.00;;;;;;5000006;28;19917;-89
2022/08/04 14:14:19;;;;;;;;;;;47.50;16.20;;;;;;5000226;28;19960;-90
2022/08/04 14:16:53;;;;;;;;;;;47.40;16.40;;;;;;4998800;28;19926;-91
2022/08/04 14:19:19;;;;;;;;;;;47.20;16.60;;;;;;5010792;28;19914;-90
2022/08/04 14:21:48;;;;;;;;;;;47.00;16.70;;;;;;5002530;28;19928;-91
2022/08/04 14:24:24;;;;;;;;;;;46.70;16.70;;;;;;4997014;28;19941;-90
2022/08/04 14:26:49;;;;;;;;;;;46.60;16.70;;;;;;4983460;28;19941;-91
2022/08/04 14:29:16;;;;;;;;;;;46.30;16.80;;;;;;4998956;28;19909;-91
2022/08/04 14:31:42;;;;;;;;;;;46.20;16.80;;;;;;5018194;28;20451;-91
2022/08/04 14:34:08;;;;;;;;;;;46.10;16.80;;;;;;4996753;28;19914;-91
2022/08/04 14:36:40;;;;;;;;;;;46.00;16.90;;;;;;5020980;28;19968;-91
2022/08/04 14:39:06;;;;;;;;;;;45.80;17.10;;;;;;5029253;28;19909;-91
2022/08/04 14:41:43;;;;;;;;;;;45.70;17.50;;;;;;4991704;28;19925;-92
2022/08/04 14:44:08;;;;;;;;;;;45.60;17.70;;;;;;5011358;28;19996;-91
2022/08/04 14:46:47;;;;;;;;;;;45.50;18.00;;;;;;5020380;28;20432;-91
2022/08/04 14:49:13;;;;;;;;;;;45.40;18.30;;;;;;5017341;28;19922;-92
2022/08/04 14:51:42;;;;;;;;;;;45.10;18.70;;;;;;5018166;28;20310;-90
2022/08/04 14:54:12;;;;;;;;;;;44.80;19.30;;;;;;5020024;28;19913;-90
2022/08/04 14:56:39;;;;;;;;;;;44.50;19.80;;;;;;5019828;28;19979;-92
2022/08/04 14:59:07;;;;;;;;;;;44.00;20.60;;;;;;5017152;28;20004;-91
2022/08/04 15:01:33;;;;;;;;;;;43.60;21.40;;;;;;5033700;28;19953;-90
2022/08/04 15:04:00;;;;;;;;;;;43.10;22.90;;;;;;5011996;28;19956;-91
2022/08/04 15:06:27;;;;;;;;;;;42.50;23.60;;;;;;4999092;28;19914;-91
2022/08/04 15:08:53;;;;;;;;;;;42.20;24.00;;;;;;5012976;28;19921;-91